createdAt,value
2023-03-18T00:01:11.124Z,9.30
2023-03-18T00:03:38.580Z,9.40
2023-03-18T00:06:13.478Z,9.23
2023-03-18T00:08:42.470Z,9.40
2023-03-18T00:11:11.274Z,9.65
2023-03-18T00:13:38.963Z,9.82
2023-03-18T00:16:07.204Z,10.15
2023-03-18T00:18:34.655Z,9.70
2023-03-18T00:21:02.074Z,10.27
2023-03-18T00:23:29.236Z,10.18
2023-03-18T00:25:58.481Z,10.40
2023-03-18T00:28:26.029Z,10.02
2023-03-18T00:30:54.324Z,9.88
2023-03-18T00:33:21.563Z,9.98
2023-03-18T00:35:48.696Z,10.30
2023-03-18T00:38:21.011Z,11.35
2023-03-18T00:41:01.715Z,9.65
2023-03-18T00:43:33.607Z,9.50
2023-03-18T00:46:00.865Z,10.32
2023-03-18T00:48:28.143Z,10.13
2023-03-18T00:50:55.207Z,9.88
2023-03-18T00:53:23.795Z,10.65
2023-03-18T00:55:50.693Z,9.98
2023-03-18T00:58:17.598Z,10.25
2023-03-18T01:00:45.815Z,10.68
2023-03-18T01:03:14.256Z,13.25
2023-03-18T01:05:41.158Z,10.57
2023-03-18T01:08:08.058Z,11.38
2023-03-18T01:10:35.015Z,11.15
2023-03-18T01:13:01.853Z,10.80
2023-03-18T01:15:29.787Z,11.35
2023-03-18T01:17:57.132Z,11.07
2023-03-18T01:20:24.970Z,11.73
2023-03-18T01:22:51.912Z,12.02
2023-03-18T01:25:19.180Z,10.27
2023-03-18T01:27:46.145Z,10.75
2023-03-18T01:30:13.904Z,11.27
2023-03-18T01:32:41.735Z,11.25
2023-03-18T01:35:09.533Z,11.55
2023-03-18T01:37:36.835Z,10.70
2023-03-18T01:40:04.918Z,11.40
2023-03-18T01:42:31.958Z,11.88
2023-03-18T01:45:20.250Z,11.38
2023-03-18T01:47:47.764Z,10.10
2023-03-18T01:50:17.404Z,10.43
2023-03-18T01:52:46.836Z,11.20
2023-03-18T01:55:19.413Z,11.00
2023-03-18T01:57:48.621Z,10.38
2023-03-18T02:00:17.167Z,10.68
2023-03-18T02:02:45.840Z,11.10
2023-03-18T02:05:17.750Z,10.50
2023-03-18T02:07:45.766Z,10.23
2023-03-18T02:10:18.577Z,10.43
2023-03-18T02:12:52.017Z,9.57
2023-03-18T02:15:22.852Z,11.13
2023-03-18T02:18:05.932Z,10.30
2023-03-18T02:20:36.120Z,10.23
2023-03-18T02:23:33.534Z,11.55
2023-03-18T02:26:12.935Z,9.90
2023-03-18T02:28:42.072Z,10.68
2023-03-18T02:31:12.872Z,9.95
2023-03-18T02:33:42.804Z,10.00
2023-03-18T02:36:15.363Z,10.32
2023-03-18T02:38:45.442Z,10.55
2023-03-18T02:41:18.962Z,9.35
2023-03-18T02:43:46.969Z,9.93
2023-03-18T02:46:25.819Z,9.45
2023-03-18T02:48:54.074Z,10.27
2023-03-18T02:51:21.083Z,10.48
2023-03-18T02:53:49.161Z,9.52
2023-03-18T02:56:19.279Z,11.23
2023-03-18T02:58:46.758Z,11.85
2023-03-18T03:01:13.875Z,12.35
2023-03-18T03:03:41.491Z,12.70
2023-03-18T03:06:08.917Z,12.65
2023-03-18T03:08:35.909Z,13.73
2023-03-18T03:11:03.075Z,14.63
2023-03-18T03:13:30.063Z,14.20
2023-03-18T03:15:57.381Z,14.20
2023-03-18T03:18:24.708Z,14.82
2023-03-18T03:20:52.282Z,14.82
2023-03-18T03:23:23.157Z,15.48
2023-03-18T03:25:50.160Z,15.50
2023-03-18T03:28:17.775Z,15.30
2023-03-18T03:30:45.695Z,15.45
2023-03-18T03:33:13.869Z,16.23
2023-03-18T03:35:41.748Z,16.98
2023-03-18T03:38:09.485Z,17.52
2023-03-18T03:40:37.387Z,16.85
2023-03-18T03:43:04.803Z,17.40
2023-03-18T03:45:31.849Z,17.92
2023-03-18T03:47:58.901Z,18.02
2023-03-18T03:50:26.413Z,19.42
2023-03-18T03:52:53.511Z,18.83
2023-03-18T03:55:22.141Z,18.25
2023-03-18T03:57:49.167Z,19.63
2023-03-18T04:00:20.576Z,20.50
2023-03-18T04:02:49.298Z,21.10
2023-03-18T04:05:18.092Z,19.15
2023-03-18T04:07:46.533Z,19.67
2023-03-18T04:10:16.501Z,19.15
2023-03-18T04:12:45.922Z,19.48
2023-03-18T04:15:14.786Z,18.85
2023-03-18T04:17:41.987Z,19.08
2023-03-18T04:20:10.084Z,18.58
2023-03-18T04:22:37.763Z,18.85
2023-03-18T04:25:05.669Z,18.35
2023-03-18T04:27:33.452Z,17.10
2023-03-18T04:30:00.832Z,18.30
2023-03-18T04:32:27.904Z,18.08
2023-03-18T04:34:54.969Z,16.88
2023-03-18T04:37:22.028Z,17.20
2023-03-18T04:39:49.115Z,17.95
2023-03-18T04:42:17.347Z,17.15
2023-03-18T04:44:44.496Z,17.88
2023-03-18T04:47:12.694Z,16.75
2023-03-18T04:49:40.255Z,17.88
2023-03-18T04:52:07.641Z,17.88
2023-03-18T04:54:34.760Z,18.55
2023-03-18T04:57:01.820Z,18.13
2023-03-18T04:59:28.763Z,18.00
2023-03-18T05:01:55.914Z,19.38
2023-03-18T05:04:24.189Z,20.40
2023-03-18T05:06:52.195Z,19.05
2023-03-18T05:09:19.543Z,18.92
2023-03-18T05:11:46.503Z,20.55
2023-03-18T05:14:13.847Z,19.50
2023-03-18T05:16:40.882Z,18.77
2023-03-18T05:19:09.651Z,18.58
2023-03-18T05:21:37.316Z,18.70
2023-03-18T05:24:05.079Z,18.85
2023-03-18T05:26:32.031Z,18.20
2023-03-18T05:28:59.498Z,19.25
2023-03-18T05:31:26.737Z,18.77
2023-03-18T05:33:53.901Z,18.15
2023-03-18T05:36:20.847Z,18.92
2023-03-18T05:38:48.021Z,19.90
2023-03-18T05:41:14.907Z,18.52
2023-03-18T05:43:42.641Z,18.38
2023-03-18T05:46:09.736Z,18.52
2023-03-18T05:48:36.928Z,18.33
2023-03-18T05:51:05.992Z,19.40
2023-03-18T05:53:33.809Z,20.23
2023-03-18T05:56:01.058Z,19.42
2023-03-18T05:58:31.353Z,19.30
2023-03-18T06:01:00.236Z,19.48
2023-03-18T06:03:27.655Z,20.02
2023-03-18T06:05:54.720Z,20.80
2023-03-18T06:08:22.403Z,19.52
2023-03-18T06:10:49.217Z,20.85
2023-03-18T06:13:16.581Z,20.95
2023-03-18T06:15:44.026Z,19.63
2023-03-18T06:18:11.095Z,19.98
2023-03-18T06:20:38.041Z,19.58
2023-03-18T06:23:05.452Z,19.77
2023-03-18T06:25:32.712Z,20.00
2023-03-18T06:28:00.036Z,20.70
2023-03-18T06:30:27.036Z,20.67
2023-03-18T06:32:54.022Z,20.08
2023-03-18T06:35:20.919Z,20.70
2023-03-18T06:37:48.651Z,20.83
2023-03-18T06:40:15.935Z,20.00
2023-03-18T06:42:43.006Z,18.35
2023-03-18T06:45:10.789Z,20.08
2023-03-18T06:47:38.467Z,20.77
2023-03-18T06:50:05.880Z,19.25
2023-03-18T06:52:33.397Z,18.77
2023-03-18T06:55:00.523Z,18.48
2023-03-18T06:57:27.767Z,18.33
2023-03-18T06:59:54.677Z,17.40
2023-03-18T07:02:23.794Z,17.38
2023-03-18T07:04:51.405Z,17.30
2023-03-18T07:07:18.571Z,16.08
2023-03-18T07:09:45.813Z,16.45
2023-03-18T07:12:14.137Z,17.40
2023-03-18T07:14:41.411Z,16.45
2023-03-18T07:17:10.559Z,15.85
2023-03-18T07:19:37.450Z,16.38
2023-03-18T07:22:04.847Z,15.23
2023-03-18T07:24:31.969Z,15.40
2023-03-18T07:26:58.926Z,14.75
2023-03-18T07:29:26.027Z,15.15
2023-03-18T07:31:52.881Z,14.32
2023-03-18T07:34:21.260Z,14.65
2023-03-18T07:36:48.274Z,14.07
2023-03-18T07:39:15.975Z,15.07
2023-03-18T07:41:42.912Z,13.30
2023-03-18T07:44:09.841Z,14.02
2023-03-18T07:46:36.822Z,14.20
2023-03-18T07:49:03.931Z,14.65
2023-03-18T07:51:30.930Z,13.93
2023-03-18T07:53:57.882Z,13.70
2023-03-18T07:56:25.972Z,12.95
2023-03-18T07:58:53.113Z,13.77
2023-03-18T08:01:19.972Z,13.15
2023-03-18T08:03:47.696Z,12.30
2023-03-18T08:06:15.983Z,12.15
2023-03-18T08:08:43.941Z,11.75
2023-03-18T08:11:11.159Z,10.95
2023-03-18T08:13:39.881Z,10.88
2023-03-18T08:16:07.430Z,10.52
2023-03-18T08:18:34.842Z,10.32
2023-03-18T08:21:02.269Z,9.70
2023-03-18T08:23:29.491Z,8.23
2023-03-18T08:25:56.778Z,9.10
2023-03-18T08:28:23.892Z,9.00
2023-03-18T08:30:55.951Z,9.13
2023-03-18T08:33:24.533Z,8.02
2023-03-18T08:35:52.164Z,7.93
2023-03-18T08:38:19.423Z,7.45
2023-03-18T08:40:47.515Z,7.18
2023-03-18T08:43:14.664Z,7.30
2023-03-18T08:45:41.815Z,5.90
2023-03-18T08:48:10.460Z,6.13
2023-03-18T08:50:37.864Z,6.30
2023-03-18T08:53:05.780Z,5.95
2023-03-18T08:55:40.816Z,6.43
2023-03-18T08:58:08.719Z,5.57
2023-03-18T09:00:38.214Z,5.40
2023-03-18T09:03:05.399Z,5.05
2023-03-18T09:05:33.332Z,5.68
2023-03-18T09:08:00.743Z,5.88
2023-03-18T09:10:28.196Z,5.38
2023-03-18T09:12:55.026Z,5.00
2023-03-18T09:15:22.470Z,5.13
2023-03-18T09:18:07.844Z,4.68
2023-03-18T09:20:40.550Z,4.80
2023-03-18T09:23:09.700Z,4.60
2023-03-18T09:25:36.540Z,4.63
2023-03-18T09:28:03.523Z,4.47
2023-03-18T09:30:30.627Z,4.10
2023-03-18T09:32:58.016Z,4.45
2023-03-18T09:35:25.239Z,4.10
2023-03-18T09:37:53.995Z,3.95
2023-03-18T09:40:30.699Z,4.15
2023-03-18T09:43:19.607Z,4.05
2023-03-18T09:46:20.911Z,4.28
2023-03-18T09:49:28.582Z,4.18
2023-03-18T09:52:07.169Z,3.60
2023-03-18T09:54:41.657Z,3.65
2023-03-18T09:57:30.508Z,3.67
2023-03-18T10:00:29.696Z,3.65
2023-03-18T10:03:28.107Z,8.77
2023-03-18T10:06:25.646Z,4.18
2023-03-18T10:09:02.181Z,4.43
2023-03-18T10:11:44.069Z,4.43
2023-03-18T10:14:46.443Z,6.88
2023-03-18T10:17:22.691Z,4.55
2023-03-18T10:19:59.208Z,4.35
2023-03-18T10:23:00.965Z,5.00
2023-03-18T10:25:43.468Z,11.50
2023-03-18T10:28:53.886Z,3.58
2023-03-18T10:31:45.841Z,6.38
2023-03-18T10:34:18.268Z,4.65
2023-03-18T10:37:12.860Z,4.15
2023-03-18T10:39:40.185Z,4.10
2023-03-18T10:42:26.510Z,3.38
2023-03-18T10:44:59.121Z,3.88
2023-03-18T10:47:31.093Z,3.50
2023-03-18T10:50:17.510Z,3.67
2023-03-18T10:53:07.495Z,3.60
2023-03-18T10:55:46.600Z,4.03
2023-03-18T10:58:18.654Z,3.60
2023-03-18T11:00:45.998Z,3.45
2023-03-18T11:03:29.706Z,3.80
2023-03-18T11:05:59.059Z,4.07
2023-03-18T11:08:38.356Z,4.40
2023-03-18T11:11:17.587Z,4.60
2023-03-18T11:13:56.013Z,4.07
2023-03-18T11:17:05.875Z,4.10
2023-03-18T11:19:48.872Z,3.70
2023-03-18T11:22:24.175Z,3.85
2023-03-18T11:25:23.328Z,3.45
2023-03-18T11:27:53.955Z,3.45
2023-03-18T11:30:34.651Z,3.20
2023-03-18T11:33:10.534Z,2.92
2023-03-18T11:35:40.927Z,2.90
2023-03-18T11:38:19.567Z,2.63
2023-03-18T11:40:46.716Z,3.25
2023-03-18T11:43:25.655Z,3.15
2023-03-18T11:46:05.318Z,3.08
2023-03-18T11:48:38.435Z,2.97
2023-03-18T11:51:26.570Z,3.30
2023-03-18T11:54:01.517Z,3.08
2023-03-18T11:56:54.233Z,3.30
2023-03-18T11:59:33.999Z,3.55
2023-03-18T12:02:19.455Z,2.78
2023-03-18T12:04:46.420Z,2.55
2023-03-18T12:07:30.369Z,2.50
2023-03-18T12:10:16.098Z,2.40
2023-03-18T12:13:17.913Z,2.20
2023-03-18T12:16:26.402Z,2.50
2023-03-18T12:18:57.611Z,2.30
2023-03-18T12:21:43.897Z,2.63
2023-03-18T12:24:38.409Z,2.40
2023-03-18T12:27:30.076Z,2.53
2023-03-18T12:30:02.767Z,2.38
2023-03-18T12:32:49.655Z,2.60
2023-03-18T12:35:39.959Z,2.10
2023-03-18T12:38:36.896Z,2.47
2023-03-18T12:41:18.774Z,3.00
2023-03-18T12:43:58.531Z,2.70
2023-03-18T12:46:33.758Z,2.40
2023-03-18T12:49:16.412Z,2.33
2023-03-18T12:52:20.892Z,2.83
2023-03-18T12:54:55.802Z,2.00
2023-03-18T12:57:47.819Z,2.00
2023-03-18T13:00:23.868Z,2.45
2023-03-18T13:03:06.882Z,2.22
2023-03-18T13:05:48.018Z,1.70
2023-03-18T13:08:36.790Z,1.58
2023-03-18T13:11:13.752Z,1.38
2023-03-18T13:13:46.020Z,1.20
2023-03-18T13:16:15.141Z,1.00
2023-03-18T13:18:46.668Z,1.45
2023-03-18T13:21:22.831Z,1.38
2023-03-18T13:24:23.967Z,1.05
2023-03-18T13:27:15.765Z,1.05
2023-03-18T13:30:06.885Z,1.17
2023-03-18T13:32:39.558Z,1.08
2023-03-18T13:35:21.623Z,1.83
2023-03-18T13:38:16.774Z,0.93
2023-03-18T13:41:14.065Z,1.25
2023-03-18T13:43:46.336Z,1.40
2023-03-18T13:46:33.994Z,0.85
2023-03-18T13:49:02.736Z,1.10
2023-03-18T13:51:29.641Z,1.10
2023-03-18T13:54:05.812Z,1.20
2023-03-18T13:56:43.225Z,1.42
2023-03-18T13:59:35.009Z,1.10
2023-03-18T14:02:30.151Z,1.40
2023-03-18T14:04:59.718Z,1.25
2023-03-18T14:07:27.671Z,1.00
2023-03-18T14:10:15.258Z,1.10
2023-03-18T14:12:49.737Z,1.08
2023-03-18T14:15:28.949Z,1.10
2023-03-18T14:17:59.741Z,0.90
2023-03-18T14:20:37.800Z,0.80
2023-03-18T14:23:39.408Z,0.88
2023-03-18T14:26:29.169Z,1.35
2023-03-18T14:29:05.561Z,1.33
2023-03-18T14:31:38.606Z,1.08
2023-03-18T14:34:33.504Z,1.05
2023-03-18T14:37:00.646Z,0.82
2023-03-18T14:39:36.195Z,0.90
2023-03-18T14:42:14.717Z,3.47
2023-03-18T14:44:50.530Z,1.40
2023-03-18T14:47:38.113Z,1.25
2023-03-18T14:50:35.189Z,1.17
2023-03-18T14:53:17.329Z,1.10
2023-03-18T14:55:45.062Z,1.42
2023-03-18T14:58:20.406Z,1.33
2023-03-18T15:00:54.219Z,1.00
2023-03-18T15:03:42.747Z,1.23
2023-03-18T15:06:21.879Z,1.13
2023-03-18T15:08:59.141Z,1.30
2023-03-18T15:11:26.677Z,1.10
2023-03-18T15:13:59.980Z,1.30
2023-03-18T15:16:30.859Z,1.30
2023-03-18T15:18:59.650Z,1.40
2023-03-18T15:21:30.231Z,1.00
2023-03-18T15:24:04.310Z,1.20
2023-03-18T15:26:37.697Z,1.08
2023-03-18T15:29:33.906Z,1.05
2023-03-18T15:32:39.241Z,1.20
2023-03-18T15:35:23.821Z,1.20
2023-03-18T15:38:16.544Z,1.00
2023-03-18T15:40:49.576Z,1.00
2023-03-18T15:43:35.580Z,1.20
2023-03-18T15:46:15.975Z,1.00
2023-03-18T15:48:54.674Z,0.88
2023-03-18T15:51:43.241Z,1.17
2023-03-18T15:54:22.319Z,1.10
2023-03-18T15:56:50.237Z,1.42
2023-03-18T15:59:28.830Z,1.17
2023-03-18T16:01:57.285Z,1.20
2023-03-18T16:04:25.538Z,1.42
2023-03-18T16:06:55.114Z,1.40
2023-03-18T16:09:24.069Z,1.35
2023-03-18T16:11:58.899Z,1.10
2023-03-18T16:14:37.630Z,1.00
2023-03-18T16:17:04.584Z,1.40
2023-03-18T16:19:31.584Z,1.00
2023-03-18T16:21:59.161Z,1.48
2023-03-18T16:24:27.119Z,1.08
2023-03-18T16:26:55.855Z,1.23
2023-03-18T16:29:34.376Z,1.55
2023-03-18T16:32:02.008Z,1.75
2023-03-18T16:34:29.184Z,1.20
2023-03-18T16:36:56.242Z,1.48
2023-03-18T16:39:34.142Z,1.60
2023-03-18T16:42:02.575Z,1.38
2023-03-18T16:44:29.681Z,1.40
2023-03-18T16:46:57.654Z,1.48
2023-03-18T16:49:29.620Z,1.30
2023-03-18T16:51:57.374Z,1.50
2023-03-18T16:54:27.249Z,1.25
2023-03-18T16:56:59.219Z,1.40
2023-03-18T16:59:31.602Z,1.92
2023-03-18T17:01:58.596Z,1.40
2023-03-18T17:04:32.968Z,1.35
2023-03-18T17:07:01.957Z,1.40
2023-03-18T17:09:28.856Z,1.40
2023-03-18T17:12:04.999Z,1.42
2023-03-18T17:14:35.843Z,1.52
2023-03-18T17:17:06.977Z,1.38
2023-03-18T17:19:35.301Z,1.50
2023-03-18T17:22:03.018Z,1.63
2023-03-18T17:24:30.097Z,1.50
2023-03-18T17:26:57.373Z,1.27
2023-03-18T17:29:26.948Z,1.38
2023-03-18T17:31:54.694Z,1.58
2023-03-18T17:34:22.734Z,1.55
2023-03-18T17:36:50.034Z,1.80
2023-03-18T17:39:17.267Z,1.98
2023-03-18T17:41:44.340Z,2.55
2023-03-18T17:44:29.758Z,1.67
2023-03-18T17:49:27.090Z,2.10
2023-03-18T17:51:56.456Z,2.60
2023-03-18T17:54:27.247Z,1.35
2023-03-18T17:56:54.469Z,1.40
2023-03-18T17:59:21.671Z,1.27
2023-03-18T18:01:50.262Z,1.00
2023-03-18T18:04:22.794Z,0.90
2023-03-18T18:06:49.733Z,0.63
2023-03-18T18:09:16.970Z,0.70
2023-03-18T18:11:50.960Z,2.13
2023-03-18T18:14:26.052Z,0.60
2023-03-18T18:16:56.238Z,0.73
2023-03-18T18:19:23.578Z,0.93
2023-03-18T18:21:51.529Z,0.73
2023-03-18T18:24:28.413Z,1.40
2023-03-18T18:26:55.926Z,0.80
2023-03-18T18:29:24.859Z,0.80
2023-03-18T18:31:52.811Z,0.90
2023-03-18T18:34:21.342Z,1.35
2023-03-18T18:36:49.762Z,0.90
2023-03-18T18:39:17.083Z,1.00
2023-03-18T18:41:45.221Z,0.98
2023-03-18T18:44:19.147Z,1.02
2023-03-18T18:46:46.417Z,1.05
2023-03-18T18:49:24.107Z,1.50
2023-03-18T18:51:56.003Z,1.15
2023-03-18T18:54:24.590Z,1.38
2023-03-18T18:56:52.271Z,1.92
2023-03-18T18:59:26.801Z,1.40
2023-03-18T19:01:55.650Z,1.60
2023-03-18T19:04:22.918Z,1.63
2023-03-18T19:06:53.802Z,1.58
2023-03-18T19:09:24.034Z,1.52
2023-03-18T19:11:52.089Z,1.40
2023-03-18T19:14:27.805Z,1.52
2023-03-18T19:16:58.560Z,1.80
2023-03-18T19:19:33.158Z,1.85
2023-03-18T19:22:00.527Z,2.20
2023-03-18T19:24:28.970Z,1.88
2023-03-18T19:26:58.634Z,2.05
2023-03-18T19:29:26.632Z,2.22
2023-03-18T19:31:54.558Z,2.05
2023-03-18T19:34:22.152Z,2.50
2023-03-18T19:36:53.132Z,3.10
2023-03-18T19:39:22.095Z,2.53
2023-03-18T19:41:49.493Z,2.67
2023-03-18T19:44:19.427Z,2.75
2023-03-18T19:46:48.056Z,2.60
2023-03-18T19:49:37.026Z,3.00
2023-03-18T19:52:26.110Z,2.85
2023-03-18T19:54:54.492Z,2.95
2023-03-18T19:57:26.101Z,2.58
2023-03-18T19:59:54.891Z,2.55
2023-03-18T20:02:24.494Z,2.25
2023-03-18T20:04:54.340Z,2.28
2023-03-18T20:07:23.885Z,2.50
2023-03-18T20:09:50.976Z,2.60
2023-03-18T20:12:26.072Z,2.72
2023-03-18T20:14:53.238Z,2.42
2023-03-18T20:17:47.138Z,3.08
2023-03-18T20:20:18.138Z,2.90
2023-03-18T20:22:51.938Z,2.58
2023-03-18T20:25:33.262Z,2.60
2023-03-18T20:28:01.192Z,2.40
2023-03-18T20:30:31.705Z,2.70
2023-03-18T20:33:00.234Z,2.50
2023-03-18T20:35:29.776Z,2.65
2023-03-18T20:37:58.157Z,2.38
2023-03-18T20:40:28.478Z,2.60
2023-03-18T20:42:56.094Z,3.00
2023-03-18T20:45:24.419Z,3.00
2023-03-18T20:47:51.560Z,3.05
2023-03-18T20:50:22.784Z,3.05
2023-03-18T20:52:50.753Z,2.65
2023-03-18T20:55:28.094Z,3.72
2023-03-18T20:57:55.292Z,3.20
2023-03-18T21:00:25.903Z,3.10
2023-03-18T21:02:55.459Z,3.13
2023-03-18T21:05:22.706Z,2.90
2023-03-18T21:07:49.812Z,3.10
2023-03-18T21:10:19.581Z,2.83
2023-03-18T21:12:47.196Z,3.10
2023-03-18T21:15:20.863Z,2.83
2023-03-18T21:17:49.181Z,3.10
2023-03-18T21:20:22.364Z,2.55
2023-03-18T21:22:50.975Z,2.40
2023-03-18T21:25:23.756Z,2.90
2023-03-18T21:27:51.655Z,2.88
2023-03-18T21:30:21.987Z,2.58
2023-03-18T21:32:51.043Z,3.03
2023-03-18T21:35:21.877Z,2.38
2023-03-18T21:37:48.930Z,2.58
2023-03-18T21:40:26.352Z,2.50
2023-03-18T21:42:53.344Z,2.78
2023-03-18T21:45:23.851Z,2.83
2023-03-18T21:47:52.649Z,2.88
2023-03-18T21:50:26.640Z,3.33
2023-03-18T21:52:54.740Z,3.10
2023-03-18T21:55:22.093Z,3.47
2023-03-18T21:57:49.593Z,2.80
2023-03-18T22:00:20.266Z,8.35
2023-03-18T22:02:48.167Z,3.50
2023-03-18T22:05:23.113Z,3.47
2023-03-18T22:07:51.396Z,3.13
2023-03-18T22:10:21.286Z,3.60
2023-03-18T22:12:48.626Z,3.00
2023-03-18T22:15:24.364Z,3.05
2023-03-18T22:17:52.252Z,3.20
2023-03-18T22:20:19.187Z,3.33
2023-03-18T22:22:47.279Z,3.50
2023-03-18T22:25:44.515Z,3.17
2023-03-18T22:28:14.584Z,3.42
2023-03-18T22:30:43.328Z,3.30
2023-03-18T22:33:19.694Z,3.95
2023-03-18T22:35:47.367Z,3.97
2023-03-18T22:38:16.193Z,3.60
2023-03-18T22:40:45.347Z,3.20
2023-03-18T22:43:27.655Z,3.33
2023-03-18T22:45:54.810Z,3.40
2023-03-18T22:48:22.204Z,2.80
2023-03-18T22:50:49.516Z,3.30
2023-03-18T22:53:25.944Z,2.80
2023-03-18T22:55:55.552Z,2.40
2023-03-18T22:58:28.659Z,2.83
2023-03-18T23:00:56.024Z,2.75
2023-03-18T23:03:40.497Z,2.60
2023-03-18T23:06:07.909Z,2.78
2023-03-18T23:08:34.850Z,2.42
2023-03-18T23:11:02.785Z,2.50
2023-03-18T23:13:35.873Z,2.30
2023-03-18T23:16:08.788Z,2.60
2023-03-18T23:18:35.868Z,2.15
2023-03-18T23:21:03.175Z,2.28
2023-03-18T23:23:30.496Z,2.65
2023-03-18T23:25:58.264Z,2.45
2023-03-18T23:28:25.325Z,2.30
2023-03-18T23:30:53.335Z,2.38
2023-03-18T23:33:20.641Z,2.30
2023-03-18T23:35:48.257Z,2.10
2023-03-18T23:38:16.185Z,2.30
2023-03-18T23:40:43.294Z,2.13
2023-03-18T23:43:10.541Z,2.35
2023-03-18T23:45:38.786Z,2.45
2023-03-18T23:48:06.782Z,2.08
2023-03-18T23:50:33.897Z,2.40
2023-03-18T23:53:01.105Z,2.40
2023-03-18T23:55:35.222Z,2.67
2023-03-18T23:58:03.425Z,2.83
